createdAt,value
2017-08-25T00:01:55.036Z,97.10
2017-08-25T00:04:23.371Z,97.10
2017-08-25T00:06:51.643Z,97.20
2017-08-25T00:09:19.923Z,97.20
2017-08-25T00:14:19.335Z,96.90
2017-08-25T00:16:48.375Z,97.00
2017-08-25T00:19:17.483Z,97.30
2017-08-25T00:21:47.270Z,97.20
2017-08-25T00:24:15.544Z,97.10
2017-08-25T00:26:43.872Z,97.00
2017-08-25T00:29:12.142Z,97.30
2017-08-25T00:31:40.474Z,96.80
2017-08-25T00:34:08.813Z,96.70
2017-08-25T00:36:38.241Z,97.10
2017-08-25T00:39:06.531Z,97.30
2017-08-25T00:41:34.899Z,97.00
2017-08-25T00:44:03.183Z,96.80
2017-08-25T00:46:31.461Z,96.90
2017-08-25T00:49:01.309Z,97.20
2017-08-25T00:51:29.594Z,97.40
2017-08-25T00:56:28.171Z,97.50
2017-08-25T01:01:26.339Z,97.80
2017-08-25T01:03:55.442Z,97.70
2017-08-25T01:06:23.727Z,98.10
2017-08-25T01:08:51.999Z,98.00
2017-08-25T01:11:20.339Z,98.00
2017-08-25T01:13:49.751Z,98.20
2017-08-25T01:16:18.030Z,98.30
2017-08-25T01:18:46.367Z,98.10
2017-08-25T01:21:14.650Z,98.00
2017-08-25T01:23:42.927Z,97.90
2017-08-25T01:26:11.275Z,98.00
2017-08-25T01:28:39.557Z,97.50
2017-08-25T01:33:37.489Z,98.40
2017-08-25T01:38:36.070Z,99.60
2017-08-25T01:41:07.451Z,99.50
2017-08-25T01:43:37.276Z,99.90
2017-08-25T01:46:05.579Z,99.90
2017-08-25T01:48:33.912Z,99.90
2017-08-25T01:51:03.314Z,99.90
2017-08-25T01:53:31.591Z,99.90
2017-08-25T01:55:59.953Z,99.90
2017-08-25T01:58:28.223Z,99.90
2017-08-25T02:00:56.894Z,99.90
2017-08-25T02:03:26.370Z,99.90
2017-08-25T02:05:54.650Z,99.90
2017-08-25T02:08:22.929Z,99.90
2017-08-25T02:10:51.259Z,99.90
2017-08-25T02:13:21.043Z,99.90
2017-08-25T02:15:50.457Z,99.90
2017-08-25T02:18:19.550Z,99.90
2017-08-25T02:20:47.831Z,99.90
2017-08-25T02:23:16.876Z,99.90
2017-08-25T02:25:45.202Z,99.90
2017-08-25T02:28:14.986Z,99.90
2017-08-25T02:30:43.254Z,99.90
2017-08-25T02:33:11.595Z,99.90
2017-08-25T02:35:39.932Z,99.90
2017-08-25T02:38:08.224Z,99.90
2017-08-25T02:40:36.596Z,99.90
2017-08-25T02:43:06.010Z,99.90
2017-08-25T02:45:34.299Z,99.90
2017-08-25T02:50:32.564Z,99.90
2017-08-25T02:53:00.843Z,99.90
2017-08-25T02:55:29.167Z,99.90
2017-08-25T02:57:57.438Z,99.90
2017-08-25T03:00:26.483Z,99.90
2017-08-25T03:02:54.858Z,99.90
2017-08-25T03:05:24.671Z,99.90
2017-08-25T03:07:52.943Z,99.90
2017-08-25T03:12:51.159Z,99.90
2017-08-25T03:15:19.435Z,99.90
2017-08-25T03:17:47.774Z,99.90
2017-08-25T03:22:45.953Z,99.90
2017-08-25T03:25:14.290Z,99.90
2017-08-25T03:27:42.570Z,99.90
2017-08-25T03:30:10.856Z,99.90
2017-08-25T03:35:09.299Z,99.90
2017-08-25T03:37:38.359Z,99.90
2017-08-25T03:40:07.483Z,99.90
2017-08-25T03:42:36.492Z,99.90
2017-08-25T03:45:05.561Z,99.90
2017-08-25T03:47:34.685Z,99.90
2017-08-25T03:50:02.958Z,99.90
2017-08-25T03:52:31.273Z,99.90
2017-08-25T03:54:59.622Z,99.90
2017-08-25T03:57:27.901Z,99.90
2017-08-25T03:59:57.315Z,99.90
2017-08-25T04:02:25.674Z,99.90
2017-08-25T04:04:53.956Z,99.90
2017-08-25T04:07:22.240Z,99.90
2017-08-25T04:09:50.564Z,99.90
2017-08-25T04:12:18.830Z,99.90
2017-08-25T04:14:48.618Z,99.90
2017-08-25T04:19:46.852Z,99.90
2017-08-25T04:22:15.122Z,99.90
2017-08-25T04:24:43.454Z,99.90
2017-08-25T04:27:12.508Z,99.90
2017-08-25T04:29:40.811Z,99.90
2017-08-25T04:32:10.687Z,99.90
2017-08-25T04:34:38.973Z,99.90
2017-08-25T04:37:07.290Z,99.90
2017-08-25T04:39:35.741Z,99.90
2017-08-25T04:42:04.024Z,99.90
2017-08-25T04:44:32.314Z,99.90
2017-08-25T04:47:01.426Z,99.90
2017-08-25T04:49:29.715Z,99.90
2017-08-25T04:51:57.996Z,99.90
2017-08-25T04:54:26.332Z,99.90
2017-08-25T04:56:54.624Z,99.90
2017-08-25T04:59:24.047Z,99.90
2017-08-25T05:01:52.779Z,99.90
2017-08-25T05:04:21.058Z,99.90
2017-08-25T05:06:50.098Z,99.90
2017-08-25T05:11:48.312Z,99.90
2017-08-25T05:14:16.587Z,99.90
2017-08-25T05:16:44.962Z,99.90
2017-08-25T05:19:13.243Z,99.90
2017-08-25T05:21:41.523Z,99.90
2017-08-25T05:24:09.890Z,99.90
2017-08-25T05:26:38.199Z,99.90
2017-08-25T05:29:07.263Z,99.90
2017-08-25T05:31:35.597Z,99.90
2017-08-25T05:34:03.879Z,99.90
2017-08-25T05:36:32.158Z,99.90
2017-08-25T05:39:00.478Z,99.90
2017-08-25T05:41:29.886Z,99.90
2017-08-25T05:43:58.554Z,99.90
2017-08-25T05:46:26.900Z,99.90
2017-08-25T05:48:55.197Z,99.90
2017-08-25T05:51:24.268Z,99.90
2017-08-25T05:53:52.608Z,99.90
2017-08-25T05:56:20.883Z,99.90
2017-08-25T05:58:49.159Z,99.90
2017-08-25T06:01:18.631Z,99.90
2017-08-25T06:03:46.906Z,99.90
2017-08-25T06:06:15.182Z,99.90
2017-08-25T06:08:43.520Z,99.90
2017-08-25T06:11:11.800Z,99.90
2017-08-25T06:13:40.084Z,99.90
2017-08-25T06:16:08.434Z,99.90
2017-08-25T06:21:06.254Z,99.90
2017-08-25T06:23:34.613Z,99.90
2017-08-25T06:26:03.661Z,99.90
2017-08-25T06:28:31.947Z,99.90
2017-08-25T06:31:00.279Z,99.90
2017-08-25T06:33:30.074Z,99.90
2017-08-25T06:35:58.362Z,99.90
2017-08-25T06:40:56.242Z,99.90
2017-08-25T06:43:24.536Z,99.90
2017-08-25T06:45:52.875Z,99.90
2017-08-25T06:48:21.153Z,99.90
2017-08-25T06:50:49.438Z,99.40
2017-08-25T06:53:17.770Z,99.20
2017-08-25T06:55:46.055Z,99.20
2017-08-25T06:58:15.847Z,98.90
2017-08-25T07:00:44.182Z,98.40
2017-08-25T07:05:42.375Z,97.80
2017-08-25T07:08:10.739Z,97.50
2017-08-25T07:10:39.808Z,97.20
2017-08-25T07:13:08.110Z,97.10
2017-08-25T07:18:06.051Z,95.20
2017-08-25T07:20:34.729Z,94.50
2017-08-25T07:23:04.561Z,94.40
2017-08-25T07:25:34.409Z,94.00
2017-08-25T07:28:02.707Z,93.90
2017-08-25T07:30:31.440Z,93.90
2017-08-25T07:32:59.724Z,93.50
2017-08-25T07:35:28.016Z,92.80
2017-08-25T07:37:57.499Z,92.80
2017-08-25T07:40:25.789Z,92.70
2017-08-25T07:42:54.083Z,92.80
2017-08-25T07:45:22.422Z,92.90
2017-08-25T07:47:51.474Z,92.60
2017-08-25T07:50:20.522Z,92.70
2017-08-25T07:52:49.639Z,91.90
2017-08-25T07:55:17.919Z,91.10
2017-08-25T07:57:46.207Z,90.70
2017-08-25T08:00:14.547Z,90.30
2017-08-25T08:02:42.836Z,88.60
2017-08-25T08:05:11.146Z,87.20
2017-08-25T08:07:40.287Z,86.50
2017-08-25T08:10:08.574Z,86.50
2017-08-25T08:12:36.875Z,88.00
2017-08-25T08:15:05.218Z,88.80
2017-08-25T08:20:03.419Z,88.30
2017-08-25T08:22:31.768Z,86.50
2017-08-25T08:25:00.054Z,87.80
2017-08-25T08:27:28.345Z,85.20
2017-08-25T08:29:58.179Z,85.10
2017-08-25T08:34:56.736Z,84.90
2017-08-25T08:37:26.207Z,83.20
2017-08-25T08:39:55.648Z,85.00
2017-08-25T08:42:24.331Z,84.30
2017-08-25T08:44:52.659Z,83.00
2017-08-25T08:47:20.944Z,82.60
2017-08-25T08:49:50.359Z,80.70
2017-08-25T08:52:18.703Z,77.40
2017-08-25T08:54:46.986Z,77.30
2017-08-25T08:57:15.662Z,76.50
2017-08-25T08:59:45.135Z,74.00
2017-08-25T09:02:13.411Z,75.90
2017-08-25T09:04:41.692Z,76.30
2017-08-25T09:09:39.932Z,73.10
2017-08-25T09:12:08.237Z,71.80
2017-08-25T09:14:37.365Z,69.50
2017-08-25T09:17:05.650Z,68.70
2017-08-25T09:19:33.915Z,67.30
2017-08-25T09:22:03.747Z,65.70
2017-08-25T09:24:32.015Z,64.50
2017-08-25T09:27:00.291Z,63.10
2017-08-25T09:29:28.647Z,65.90
2017-08-25T09:31:56.927Z,64.40
2017-08-25T09:34:26.344Z,61.80
2017-08-25T09:36:54.680Z,61.80
2017-08-25T09:39:22.957Z,60.60
2017-08-25T09:41:51.231Z,58.20
2017-08-25T09:44:19.567Z,58.90
2017-08-25T09:49:18.114Z,61.70
2017-08-25T09:51:47.207Z,60.30
2017-08-25T09:54:16.253Z,59.80
2017-08-25T09:56:45.299Z,58.30
2017-08-25T09:59:13.643Z,57.60
2017-08-25T10:01:41.932Z,58.70
2017-08-25T10:04:11.732Z,57.90
2017-08-25T10:06:40.066Z,55.10
2017-08-25T10:09:09.700Z,58.50
2017-08-25T10:11:38.016Z,58.20
2017-08-25T10:14:06.358Z,56.40
2017-08-25T10:16:34.663Z,56.80
2017-08-25T10:19:02.945Z,57.00
2017-08-25T10:21:31.274Z,54.50
2017-08-25T10:24:00.695Z,54.70
2017-08-25T10:26:28.970Z,56.30
2017-08-25T10:28:57.306Z,55.20
2017-08-25T10:31:25.592Z,55.90
2017-08-25T10:33:53.867Z,56.20
2017-08-25T10:36:34.899Z,55.90
2017-08-25T10:39:15.019Z,56.60
2017-08-25T10:41:55.211Z,57.40
2017-08-25T10:46:59.543Z,56.50
2017-08-25T10:51:57.715Z,58.80
2017-08-25T10:54:26.047Z,55.80
2017-08-25T10:56:54.340Z,57.60
2017-08-25T10:59:22.615Z,58.10
2017-08-25T11:01:50.967Z,59.10
2017-08-25T11:04:19.238Z,61.30
2017-08-25T11:06:49.024Z,58.90
2017-08-25T11:09:17.361Z,58.50
2017-08-25T11:11:45.634Z,56.90
2017-08-25T11:16:43.913Z,57.60
2017-08-25T11:19:12.982Z,56.60
2017-08-25T11:24:11.664Z,56.90
2017-08-25T11:26:41.139Z,56.50
2017-08-25T11:29:09.436Z,58.60
2017-08-25T11:31:37.812Z,57.90
2017-08-25T11:34:06.164Z,56.80
2017-08-25T11:36:34.493Z,56.20
2017-08-25T11:39:02.834Z,55.10
2017-08-25T11:41:32.253Z,56.30
2017-08-25T11:44:00.531Z,56.30
2017-08-25T11:48:58.739Z,53.50
2017-08-25T11:51:27.023Z,53.00
2017-08-25T11:53:55.437Z,52.60
2017-08-25T11:58:53.620Z,53.90
2017-08-25T12:01:22.715Z,53.60
2017-08-25T12:03:50.987Z,54.80
2017-08-25T12:06:19.272Z,52.70
2017-08-25T12:08:47.618Z,54.10
2017-08-25T12:11:15.889Z,54.20
2017-08-25T12:13:45.299Z,54.50
2017-08-25T12:16:13.677Z,52.60
2017-08-25T12:18:41.995Z,51.60
2017-08-25T12:21:10.291Z,52.10
2017-08-25T12:26:08.194Z,52.60
2017-08-25T12:28:36.518Z,51.40
2017-08-25T12:31:07.362Z,52.90
2017-08-25T12:33:37.176Z,54.70
2017-08-25T12:36:05.492Z,53.20
2017-08-25T12:38:35.322Z,52.70
2017-08-25T12:41:03.610Z,50.50
2017-08-25T12:43:32.654Z,50.40
2017-08-25T12:46:01.003Z,52.70
2017-08-25T12:48:29.271Z,53.10
2017-08-25T12:50:57.550Z,52.70
2017-08-25T12:55:55.395Z,53.10
2017-08-25T12:58:23.670Z,52.90
2017-08-25T13:00:51.992Z,52.80
2017-08-25T13:03:21.775Z,51.70
2017-08-25T13:08:20.374Z,53.60
2017-08-25T13:10:48.646Z,51.50
2017-08-25T13:13:16.918Z,51.90
2017-08-25T13:15:45.243Z,51.50
2017-08-25T13:18:15.030Z,52.90
2017-08-25T13:23:13.643Z,53.30
2017-08-25T13:28:12.538Z,54.60
2017-08-25T13:30:40.892Z,53.60
2017-08-25T13:33:09.187Z,55.10
2017-08-25T13:35:37.882Z,54.40
2017-08-25T13:38:06.238Z,55.30
2017-08-25T13:40:35.301Z,53.80
2017-08-25T13:43:03.575Z,53.80
2017-08-25T13:45:31.914Z,54.00
2017-08-25T13:48:00.187Z,53.30
2017-08-25T13:52:58.405Z,56.30
2017-08-25T13:55:26.687Z,57.30
2017-08-25T13:57:54.995Z,56.00
2017-08-25T14:02:54.394Z,55.30
2017-08-25T14:05:23.428Z,55.70
2017-08-25T14:07:52.519Z,56.50
2017-08-25T14:10:20.792Z,55.10
2017-08-25T14:12:49.075Z,55.50
2017-08-25T14:15:17.404Z,56.30
2017-08-25T14:17:45.675Z,54.80
2017-08-25T14:20:15.086Z,56.40
2017-08-25T14:22:43.408Z,57.10
2017-08-25T14:25:11.683Z,56.50
2017-08-25T14:27:41.474Z,54.80
2017-08-25T14:30:09.801Z,56.10
2017-08-25T14:32:38.087Z,58.00
2017-08-25T14:35:06.371Z,57.70
2017-08-25T14:37:34.702Z,57.70
2017-08-25T14:40:02.973Z,56.90
2017-08-25T14:42:32.013Z,55.50
2017-08-25T14:45:01.127Z,55.80
2017-08-25T14:47:30.170Z,55.70
2017-08-25T14:49:58.452Z,55.20
2017-08-25T14:52:26.790Z,56.70
2017-08-25T14:54:55.086Z,58.70
2017-08-25T14:57:23.368Z,60.50
2017-08-25T14:59:52.814Z,59.30
2017-08-25T15:02:21.101Z,59.60
2017-08-25T15:04:52.427Z,58.80
2017-08-25T15:07:21.511Z,59.20
2017-08-25T15:12:20.100Z,59.30
2017-08-25T15:14:48.421Z,59.10
2017-08-25T15:17:16.696Z,59.70
2017-08-25T15:19:46.522Z,60.10
2017-08-25T15:22:14.857Z,58.40
2017-08-25T15:24:43.894Z,59.80
2017-08-25T15:27:12.223Z,61.10
2017-08-25T15:29:40.551Z,59.80
2017-08-25T15:32:10.354Z,60.80
2017-08-25T15:34:38.668Z,59.90
2017-08-25T15:37:08.512Z,59.90
2017-08-25T15:39:36.819Z,60.90
2017-08-25T15:42:05.156Z,60.30
2017-08-25T15:44:33.862Z,59.80
2017-08-25T15:47:02.916Z,59.90
2017-08-25T15:49:31.226Z,59.60
2017-08-25T15:51:59.543Z,58.30
2017-08-25T15:54:27.814Z,59.80
2017-08-25T15:59:27.724Z,62.40
2017-08-25T16:06:55.850Z,60.80
2017-08-25T16:09:24.140Z,60.40
2017-08-25T16:14:22.420Z,61.60
2017-08-25T16:16:50.702Z,60.80
2017-08-25T16:19:19.024Z,60.60
2017-08-25T16:21:48.434Z,60.50
2017-08-25T16:24:16.716Z,61.70
2017-08-25T16:26:45.043Z,61.70
2017-08-25T16:29:13.319Z,61.60
2017-08-25T16:31:41.595Z,61.30
2017-08-25T16:36:39.823Z,62.60
2017-08-25T16:39:08.102Z,62.00
2017-08-25T16:41:36.464Z,62.30
2017-08-25T16:51:34.479Z,62.20
2017-08-25T16:54:03.946Z,64.10
2017-08-25T16:56:32.223Z,65.80
2017-08-25T16:59:00.500Z,66.10
2017-08-25T17:01:28.819Z,66.10
2017-08-25T17:03:57.107Z,65.50
2017-08-25T17:06:25.396Z,65.00
2017-08-25T17:08:54.887Z,64.70
2017-08-25T17:13:53.062Z,64.70
2017-08-25T17:18:51.699Z,64.90
2017-08-25T17:21:19.974Z,65.10
2017-08-25T17:23:48.286Z,65.10
2017-08-25T17:26:17.331Z,65.70
2017-08-25T17:31:15.586Z,65.40
2017-08-25T17:33:43.870Z,65.00
2017-08-25T17:36:12.167Z,66.00
2017-08-25T17:38:40.511Z,65.70
2017-08-25T17:41:10.306Z,67.40
2017-08-25T17:46:08.199Z,66.60
2017-08-25T17:51:06.488Z,66.90
2017-08-25T17:53:34.829Z,67.30
2017-08-25T17:56:03.103Z,68.70
2017-08-25T17:58:31.419Z,69.20
2017-08-25T18:00:59.752Z,69.40
2017-08-25T18:05:57.963Z,67.70
2017-08-25T18:08:26.284Z,68.80
2017-08-25T18:13:25.595Z,69.90
2017-08-25T18:15:53.920Z,70.40
2017-08-25T18:18:23.711Z,70.50
2017-08-25T18:20:52.023Z,72.00
2017-08-25T18:23:20.352Z,72.00
2017-08-25T18:25:50.148Z,71.10
2017-08-25T18:28:18.458Z,71.60
2017-08-25T18:33:16.680Z,71.50
2017-08-25T18:35:44.988Z,70.90
2017-08-25T18:38:13.311Z,69.80
2017-08-25T18:40:43.082Z,71.00
2017-08-25T18:45:42.108Z,72.10
2017-08-25T18:48:11.982Z,71.10
2017-08-25T18:50:40.288Z,70.50
2017-08-25T18:55:39.482Z,68.80
2017-08-25T18:58:07.799Z,70.20
2017-08-25T19:00:36.130Z,70.20
2017-08-25T19:03:06.314Z,71.50
2017-08-25T19:05:35.400Z,70.20
2017-08-25T19:10:34.014Z,68.70
2017-08-25T19:13:02.287Z,70.80
2017-08-25T19:15:30.641Z,69.80
2017-08-25T19:17:59.302Z,69.10
2017-08-25T19:20:27.624Z,71.00
2017-08-25T19:22:57.079Z,69.40
2017-08-25T19:25:25.354Z,70.10
2017-08-25T19:30:23.985Z,69.10
2017-08-25T19:32:53.034Z,70.10
2017-08-25T19:37:51.271Z,69.40
2017-08-25T19:42:49.814Z,70.40
2017-08-25T19:45:18.146Z,68.60
2017-08-25T19:50:15.923Z,71.80
2017-08-25T19:52:44.271Z,69.60
2017-08-25T19:55:12.547Z,68.90
2017-08-25T19:57:40.839Z,69.50
2017-08-25T20:00:09.749Z,68.90
2017-08-25T20:02:38.807Z,69.20
2017-08-25T20:05:07.102Z,71.20
2017-08-25T20:07:35.464Z,69.60
2017-08-25T20:12:33.652Z,70.90
2017-08-25T20:15:01.979Z,70.00
2017-08-25T20:17:30.254Z,71.90
2017-08-25T20:19:59.296Z,72.70
2017-08-25T20:22:27.618Z,72.40
2017-08-25T20:24:55.907Z,71.70
2017-08-25T20:27:24.193Z,72.50
2017-08-25T20:29:53.673Z,71.70
2017-08-25T20:32:21.949Z,71.30
2017-08-25T20:34:51.732Z,70.60
2017-08-25T20:37:20.844Z,70.90
2017-08-25T20:39:49.119Z,70.40
2017-08-25T20:42:18.528Z,71.60
2017-08-25T20:52:15.413Z,71.80
2017-08-25T20:54:43.683Z,70.10
2017-08-25T20:57:11.963Z,70.80
2017-08-25T20:59:41.075Z,71.40
2017-08-25T21:02:09.363Z,69.60
2017-08-25T21:04:39.384Z,70.20
2017-08-25T21:07:07.735Z,70.90
2017-08-25T21:09:37.530Z,72.70
2017-08-25T21:17:16.734Z,74.10
2017-08-25T21:19:45.007Z,74.60
2017-08-25T21:22:14.476Z,76.00
2017-08-25T21:24:42.775Z,75.30
2017-08-25T21:27:11.047Z,75.00
2017-08-25T21:29:39.386Z,74.80
2017-08-25T21:32:08.480Z,76.00
2017-08-25T21:37:07.662Z,76.00
2017-08-25T21:42:06.280Z,75.50
2017-08-25T21:44:34.594Z,76.50
2017-08-25T21:47:03.262Z,77.30
2017-08-25T21:49:32.679Z,77.20
2017-08-25T21:52:01.416Z,77.50
2017-08-25T21:54:29.704Z,77.00
2017-08-25T21:56:57.995Z,75.60
2017-08-25T21:59:26.318Z,76.90
2017-08-25T22:01:54.616Z,77.00
2017-08-25T22:04:22.894Z,78.00
2017-08-25T22:06:52.355Z,77.50
2017-08-25T22:09:20.635Z,78.00
2017-08-25T22:14:19.230Z,78.40
2017-08-25T22:16:47.512Z,78.00
2017-08-25T22:19:16.547Z,77.20
2017-08-25T22:21:46.016Z,78.00
2017-08-25T22:24:15.055Z,78.90
2017-08-25T22:26:44.842Z,78.70
2017-08-25T22:29:13.936Z,79.10
2017-08-25T22:31:43.339Z,78.40
2017-08-25T22:34:13.128Z,78.30
2017-08-25T22:36:41.455Z,78.20
2017-08-25T22:39:09.747Z,78.00
2017-08-25T22:41:38.043Z,77.70
2017-08-25T22:44:06.389Z,77.10
2017-08-25T22:46:34.676Z,76.80
2017-08-25T22:49:02.955Z,76.90
2017-08-25T22:51:32.783Z,76.90
2017-08-25T22:54:01.066Z,77.00
2017-08-25T22:56:29.349Z,76.50
2017-08-25T22:58:58.999Z,76.90
2017-08-25T23:01:27.666Z,76.60
2017-08-25T23:03:56.715Z,79.50
2017-08-25T23:06:25.734Z,79.30
2017-08-25T23:08:54.794Z,77.70
2017-08-25T23:11:23.069Z,78.30
2017-08-25T23:16:21.511Z,79.50
2017-08-25T23:21:19.375Z,81.50
2017-08-25T23:23:47.639Z,81.90
2017-08-25T23:26:15.919Z,81.60
2017-08-25T23:28:45.003Z,82.90
2017-08-25T23:31:14.411Z,83.10
2017-08-25T23:33:42.686Z,82.90
2017-08-25T23:36:11.018Z,83.20
2017-08-25T23:38:40.443Z,83.40
2017-08-25T23:41:09.124Z,83.90
2017-08-25T23:43:38.595Z,83.90
2017-08-25T23:46:07.660Z,84.40
2017-08-25T23:48:36.708Z,83.50
2017-08-25T23:53:35.325Z,84.00
2017-08-25T23:56:05.112Z,83.80
2017-08-25T23:58:33.435Z,82.80
